createdAt,value
2023-02-27T00:00:15.038Z,-3.40
2023-02-27T00:02:44.020Z,-3.40
2023-02-27T00:05:11.083Z,-3.50
2023-02-27T00:07:38.053Z,-3.50
2023-02-27T00:10:05.397Z,-3.60
2023-02-27T00:12:37.738Z,-3.70
2023-02-27T00:15:16.503Z,-3.60
2023-02-27T00:17:45.418Z,-3.60
2023-02-27T00:20:16.192Z,-3.60
2023-02-27T00:22:43.242Z,-3.50
2023-02-27T00:25:10.341Z,-3.50
2023-02-27T00:27:37.089Z,-3.60
2023-02-27T00:30:09.271Z,-3.60
2023-02-27T00:32:36.919Z,-3.60
2023-02-27T00:35:13.037Z,-3.70
2023-02-27T00:37:43.209Z,-3.70
2023-02-27T00:40:10.908Z,-3.80
2023-02-27T00:42:39.084Z,-3.70
2023-02-27T00:45:07.117Z,-3.80
2023-02-27T00:47:36.345Z,-3.80
2023-02-27T00:50:03.208Z,-3.90
2023-02-27T00:52:34.510Z,-3.90
2023-02-27T00:55:01.566Z,-3.90
2023-02-27T00:57:28.554Z,-3.90
2023-02-27T00:59:55.333Z,-3.90
2023-02-27T01:02:22.307Z,-3.90
2023-02-27T01:04:49.679Z,-3.90
2023-02-27T01:07:16.746Z,-4.00
2023-02-27T01:09:44.849Z,-4.00
2023-02-27T01:12:11.744Z,-4.00
2023-02-27T01:14:38.390Z,-4.00
2023-02-27T01:17:05.632Z,-4.00
2023-02-27T01:19:33.249Z,-4.10
2023-02-27T01:22:00.182Z,-4.00
2023-02-27T01:24:27.273Z,-4.00
2023-02-27T01:26:54.237Z,-4.10
2023-02-27T01:29:21.325Z,-4.10
2023-02-27T01:31:49.160Z,-4.10
2023-02-27T01:34:18.642Z,-4.10
2023-02-27T01:36:45.756Z,-4.10
2023-02-27T01:39:12.802Z,-4.10
2023-02-27T01:41:39.680Z,-4.20
2023-02-27T01:44:11.411Z,-4.20
2023-02-27T01:46:38.401Z,-4.30
2023-02-27T01:49:12.937Z,-4.40
2023-02-27T01:51:47.973Z,-4.30
2023-02-27T01:54:19.446Z,-4.40
2023-02-27T01:56:46.841Z,-4.40
2023-02-27T01:59:15.344Z,-4.40
2023-02-27T02:01:45.344Z,-4.50
2023-02-27T02:04:31.031Z,-4.50
2023-02-27T02:07:01.447Z,-4.50
2023-02-27T02:09:30.155Z,-4.40
2023-02-27T02:11:58.578Z,-4.40
2023-02-27T02:14:25.318Z,-4.50
2023-02-27T02:17:16.874Z,-4.50
2023-02-27T02:20:31.282Z,-4.50
2023-02-27T02:23:38.828Z,-4.50
2023-02-27T02:26:33.159Z,-4.60
2023-02-27T02:29:32.759Z,-4.70
2023-02-27T02:32:26.575Z,-4.70
2023-02-27T02:35:36.094Z,-4.60
2023-02-27T02:38:28.403Z,-4.60
2023-02-27T02:41:11.259Z,-4.60
2023-02-27T02:43:53.552Z,-4.60
2023-02-27T02:46:36.617Z,-4.60
2023-02-27T02:49:16.714Z,-4.70
2023-02-27T02:51:55.872Z,-4.70
2023-02-27T02:54:34.384Z,-4.80
2023-02-27T02:57:10.089Z,-4.80
2023-02-27T02:59:45.207Z,-4.70
2023-02-27T03:02:19.086Z,-4.80
2023-02-27T03:05:08.672Z,-4.80
2023-02-27T03:07:48.854Z,-4.80
2023-02-27T03:13:29.329Z,-4.90
2023-02-27T03:16:06.761Z,-4.90
2023-02-27T03:18:43.331Z,-4.90
2023-02-27T03:21:22.023Z,-5.00
2023-02-27T03:23:51.678Z,-5.00
2023-02-27T03:26:23.151Z,-4.90
2023-02-27T03:29:01.684Z,-5.00
2023-02-27T03:31:39.656Z,-5.00
2023-02-27T03:34:23.846Z,-5.00
2023-02-27T03:37:30.171Z,-5.00
2023-02-27T03:40:27.913Z,-5.00
2023-02-27T03:43:14.797Z,-5.00
2023-02-27T03:46:07.957Z,-5.10
2023-02-27T03:48:35.024Z,-5.20
2023-02-27T03:51:02.718Z,-5.10
2023-02-27T03:53:39.046Z,-5.10
2023-02-27T03:56:08.810Z,-5.10
2023-02-27T03:58:36.326Z,-5.10
2023-02-27T04:01:03.268Z,-5.10
2023-02-27T04:03:37.722Z,-5.10
2023-02-27T04:06:24.997Z,-5.10
2023-02-27T04:09:11.157Z,-5.20
2023-02-27T04:11:53.429Z,-5.20
2023-02-27T04:14:46.305Z,-5.30
2023-02-27T04:17:24.541Z,-5.30
2023-02-27T04:20:17.996Z,-5.40
2023-02-27T04:22:58.049Z,-5.40
2023-02-27T04:25:36.055Z,-5.30
2023-02-27T04:28:18.988Z,-5.30
2023-02-27T04:31:01.122Z,-5.20
2023-02-27T04:33:42.026Z,-5.10
2023-02-27T04:36:13.046Z,-5.10
2023-02-27T04:39:08.634Z,-5.10
2023-02-27T04:41:44.039Z,-5.00
2023-02-27T04:44:12.647Z,-4.90
2023-02-27T04:46:41.771Z,-4.90
2023-02-27T04:49:28.135Z,-4.80
2023-02-27T04:52:12.809Z,-4.70
2023-02-27T04:54:52.546Z,-4.70
2023-02-27T04:57:32.014Z,-4.70
2023-02-27T05:00:02.505Z,-4.70
2023-02-27T05:02:34.867Z,-4.70
2023-02-27T05:05:03.774Z,-4.80
2023-02-27T05:07:39.703Z,-4.70
2023-02-27T05:10:14.040Z,-4.80
2023-02-27T05:12:59.899Z,-4.90
2023-02-27T05:15:29.464Z,-4.90
2023-02-27T05:18:13.521Z,-5.00
2023-02-27T05:20:45.391Z,-4.90
2023-02-27T05:23:30.397Z,-5.00
2023-02-27T05:26:15.753Z,-5.10
2023-02-27T05:29:06.630Z,-5.10
2023-02-27T05:31:56.701Z,-5.10
2023-02-27T05:34:29.070Z,-5.10
2023-02-27T05:37:13.963Z,-5.20
2023-02-27T05:39:42.218Z,-5.20
2023-02-27T05:42:16.816Z,-5.20
2023-02-27T05:44:49.737Z,-5.20
2023-02-27T05:47:22.305Z,-5.30
2023-02-27T05:49:52.465Z,-5.30
2023-02-27T05:52:22.842Z,-5.20
2023-02-27T05:55:11.667Z,-5.20
2023-02-27T05:57:47.632Z,-5.30
2023-02-27T06:00:19.833Z,-5.30
2023-02-27T06:02:46.319Z,-5.30
2023-02-27T06:05:18.317Z,-5.30
2023-02-27T06:07:45.508Z,-5.40
2023-02-27T06:10:19.328Z,-5.30
2023-02-27T06:12:47.515Z,-5.30
2023-02-27T06:15:16.977Z,-5.30
2023-02-27T06:17:43.632Z,-5.30
2023-02-27T06:20:10.722Z,-5.20
2023-02-27T06:22:46.398Z,-5.20
2023-02-27T06:25:13.231Z,-5.10
2023-02-27T06:27:39.751Z,-5.20
2023-02-27T06:30:10.308Z,-5.10
2023-02-27T06:32:36.844Z,-5.00
2023-02-27T06:35:03.387Z,-5.00
2023-02-27T06:37:30.217Z,-5.00
2023-02-27T06:39:56.700Z,-4.90
2023-02-27T06:42:26.907Z,-4.90
2023-02-27T06:44:53.415Z,-4.70
2023-02-27T06:47:19.868Z,-4.60
2023-02-27T06:49:46.368Z,-4.50
2023-02-27T06:52:12.856Z,-4.40
2023-02-27T06:54:39.313Z,-4.30
2023-02-27T06:57:06.103Z,-4.20
2023-02-27T06:59:32.748Z,-4.10
2023-02-27T07:02:00.586Z,-4.10
2023-02-27T07:04:27.103Z,-4.00
2023-02-27T07:07:32.484Z,-3.90
2023-02-27T07:09:40.052Z,-3.80
2023-02-27T07:12:07.988Z,-3.60
2023-02-27T07:14:34.663Z,-3.50
2023-02-27T07:17:04.428Z,-3.30
2023-02-27T07:19:33.538Z,-3.10
2023-02-27T07:21:59.977Z,-3.00
2023-02-27T07:24:26.523Z,-2.90
2023-02-27T07:26:53.776Z,-2.80
2023-02-27T07:29:20.295Z,-2.70
2023-02-27T07:31:46.865Z,-2.60
2023-02-27T07:34:14.866Z,-2.50
2023-02-27T07:36:45.264Z,-2.40
2023-02-27T07:39:15.003Z,-2.30
2023-02-27T07:41:41.552Z,-2.10
2023-02-27T07:44:08.642Z,-2.00
2023-02-27T07:46:35.455Z,-1.80
2023-02-27T07:49:01.928Z,-1.70
2023-02-27T07:51:29.070Z,-1.70
2023-02-27T07:53:58.619Z,-1.50
2023-02-27T07:56:28.477Z,-1.40
2023-02-27T07:58:55.097Z,-1.40
2023-02-27T08:01:21.904Z,-1.30
2023-02-27T08:03:48.389Z,-1.10
2023-02-27T08:06:14.880Z,-1.00
2023-02-27T08:08:47.550Z,-0.80
2023-02-27T08:11:14.374Z,-0.70
2023-02-27T08:14:00.476Z,-0.60
2023-02-27T08:16:27.797Z,-0.50
2023-02-27T08:18:54.717Z,-0.50
2023-02-27T08:21:21.196Z,-0.40
2023-02-27T08:23:49.154Z,-0.50
2023-02-27T08:26:15.636Z,-0.30
2023-02-27T08:28:42.143Z,-0.20
2023-02-27T08:31:08.707Z,0.10
2023-02-27T08:33:36.522Z,0.40
2023-02-27T08:36:03.129Z,0.50
2023-02-27T08:38:29.718Z,0.40
2023-02-27T08:40:56.191Z,0.50
2023-02-27T08:43:23.279Z,0.90
2023-02-27T08:45:50.381Z,1.00
2023-02-27T08:48:18.445Z,1.20
2023-02-27T08:50:46.017Z,1.10
2023-02-27T08:53:12.605Z,1.30
2023-02-27T08:55:39.356Z,1.60
2023-02-27T08:58:05.805Z,1.70
2023-02-27T09:00:32.840Z,1.70
2023-02-27T09:03:01.759Z,2.00
2023-02-27T09:05:29.114Z,1.90
2023-02-27T09:07:55.904Z,2.20
2023-02-27T09:10:22.645Z,2.30
2023-02-27T09:12:49.285Z,2.40
2023-02-27T09:15:17.147Z,2.60
2023-02-27T09:17:43.755Z,3.00
2023-02-27T09:20:11.454Z,4.00
2023-02-27T09:22:38.486Z,5.10
2023-02-27T09:25:05.787Z,4.90
2023-02-27T09:27:32.220Z,5.30
2023-02-27T09:29:59.257Z,5.70
2023-02-27T09:32:27.034Z,5.00
2023-02-27T09:34:53.913Z,4.80
2023-02-27T09:37:20.378Z,4.90
2023-02-27T09:39:47.307Z,4.70
2023-02-27T09:42:37.525Z,4.40
2023-02-27T09:45:39.708Z,4.60
2023-02-27T09:48:16.045Z,5.00
2023-02-27T09:50:45.252Z,5.50
2023-02-27T09:53:33.981Z,4.90
2023-02-27T09:56:23.070Z,5.10
2023-02-27T09:59:14.327Z,4.90
2023-02-27T10:01:49.732Z,5.30
2023-02-27T10:04:33.437Z,5.40
2023-02-27T10:07:16.593Z,5.80
2023-02-27T10:09:54.446Z,5.90
2023-02-27T10:12:34.579Z,5.90
2023-02-27T10:15:13.302Z,6.20
2023-02-27T10:17:44.602Z,6.30
2023-02-27T10:20:22.423Z,6.70
2023-02-27T10:22:50.629Z,6.00
2023-02-27T10:25:30.698Z,6.90
2023-02-27T10:28:09.336Z,6.50
2023-02-27T10:30:36.123Z,7.00
2023-02-27T10:33:11.006Z,7.10
2023-02-27T10:35:39.890Z,7.50
2023-02-27T10:38:13.506Z,7.70
2023-02-27T10:40:42.730Z,8.80
2023-02-27T10:43:13.124Z,8.70
2023-02-27T10:45:39.667Z,9.10
2023-02-27T10:48:06.365Z,9.70
2023-02-27T10:50:37.794Z,11.50
2023-02-27T10:53:16.072Z,11.90
2023-02-27T10:55:47.503Z,10.80
2023-02-27T10:58:20.174Z,9.60
2023-02-27T11:00:56.609Z,10.10
2023-02-27T11:03:29.682Z,9.90
2023-02-27T11:06:01.699Z,9.00
2023-02-27T11:08:30.211Z,9.80
2023-02-27T11:11:04.637Z,10.20
2023-02-27T11:13:35.279Z,9.80
2023-02-27T11:16:09.672Z,9.70
2023-02-27T11:18:38.917Z,9.10
2023-02-27T11:21:28.657Z,9.80
2023-02-27T11:24:17.928Z,9.70
2023-02-27T11:27:06.716Z,10.20
2023-02-27T11:29:34.715Z,10.30
2023-02-27T11:32:20.080Z,11.30
2023-02-27T11:34:49.793Z,11.20
2023-02-27T11:37:30.419Z,13.50
2023-02-27T11:40:09.441Z,14.20
2023-02-27T11:42:41.987Z,14.10
2023-02-27T11:46:09.876Z,12.30
2023-02-27T11:48:22.548Z,13.10
2023-02-27T11:51:05.410Z,13.10
2023-02-27T11:53:47.138Z,11.40
2023-02-27T11:56:19.165Z,9.90
2023-02-27T11:58:56.525Z,10.40
2023-02-27T12:01:33.306Z,9.20
2023-02-27T12:04:15.714Z,8.80
2023-02-27T12:06:48.233Z,8.60
2023-02-27T12:09:34.170Z,8.40
2023-02-27T12:12:06.156Z,8.50
2023-02-27T12:14:42.701Z,9.40
2023-02-27T12:17:29.687Z,8.60
2023-02-27T12:19:59.731Z,9.20
2023-02-27T12:22:33.656Z,8.90
2023-02-27T12:25:14.057Z,9.30
2023-02-27T12:27:59.487Z,8.80
2023-02-27T12:30:29.717Z,8.40
2023-02-27T12:33:15.881Z,8.20
2023-02-27T12:35:44.617Z,8.30
2023-02-27T12:38:15.240Z,8.30
2023-02-27T12:41:01.416Z,8.00
2023-02-27T12:44:10.988Z,8.00
2023-02-27T12:47:04.415Z,7.90
2023-02-27T12:49:43.003Z,8.20
2023-02-27T12:52:19.413Z,8.50
2023-02-27T12:55:14.048Z,8.70
2023-02-27T12:58:05.368Z,9.00
2023-02-27T13:01:00.697Z,8.50
2023-02-27T13:03:54.428Z,7.80
2023-02-27T13:06:30.461Z,8.10
2023-02-27T13:09:11.631Z,8.30
2023-02-27T13:11:57.210Z,7.80
2023-02-27T13:14:49.281Z,7.50
2023-02-27T13:17:26.864Z,7.60
2023-02-27T13:20:17.935Z,7.50
2023-02-27T13:23:26.364Z,7.20
2023-02-27T13:25:55.251Z,7.20
2023-02-27T13:28:25.887Z,6.80
2023-02-27T13:31:10.410Z,7.20
2023-02-27T13:33:54.478Z,7.20
2023-02-27T13:36:26.608Z,6.90
2023-02-27T13:38:55.458Z,7.00
2023-02-27T13:41:24.773Z,7.30
2023-02-27T13:43:53.117Z,7.30
2023-02-27T13:46:28.335Z,7.90
2023-02-27T13:49:27.110Z,7.40
2023-02-27T13:51:58.603Z,7.20
2023-02-27T13:54:31.118Z,7.00
2023-02-27T13:57:18.090Z,7.50
2023-02-27T13:59:52.640Z,7.40
2023-02-27T14:02:59.416Z,7.60
2023-02-27T14:05:35.148Z,7.90
2023-02-27T14:08:19.343Z,7.60
2023-02-27T14:10:54.988Z,8.30
2023-02-27T14:13:54.900Z,8.20
2023-02-27T14:16:44.129Z,8.20
2023-02-27T14:19:17.156Z,8.00
2023-02-27T14:21:52.002Z,7.50
2023-02-27T14:24:23.111Z,7.60
2023-02-27T14:26:52.423Z,6.80
2023-02-27T14:29:23.019Z,6.90
2023-02-27T14:31:51.045Z,7.10
2023-02-27T14:34:20.833Z,7.20
2023-02-27T14:36:52.289Z,7.40
2023-02-27T14:39:32.019Z,6.90
2023-02-27T14:42:31.797Z,7.10
2023-02-27T14:44:59.239Z,6.20
2023-02-27T14:47:36.863Z,6.70
2023-02-27T14:50:06.622Z,6.90
2023-02-27T14:52:42.630Z,6.70
2023-02-27T14:55:28.167Z,6.90
2023-02-27T14:57:56.731Z,6.70
2023-02-27T15:00:50.683Z,6.90
2023-02-27T15:03:23.745Z,6.80
2023-02-27T15:05:52.868Z,6.60
2023-02-27T15:08:26.362Z,6.80
2023-02-27T15:10:55.627Z,6.70
2023-02-27T15:13:28.124Z,6.90
2023-02-27T15:16:31.735Z,6.90
2023-02-27T15:19:30.530Z,6.70
2023-02-27T15:21:59.786Z,6.50
2023-02-27T15:24:33.145Z,6.50
2023-02-27T15:27:01.788Z,6.00
2023-02-27T15:29:34.467Z,6.10
2023-02-27T15:32:01.740Z,6.10
2023-02-27T15:34:29.736Z,6.10
2023-02-27T15:36:57.676Z,6.10
2023-02-27T15:39:26.556Z,5.90
2023-02-27T15:41:56.580Z,6.10
2023-02-27T15:44:26.972Z,6.00
2023-02-27T15:46:54.304Z,5.60
2023-02-27T15:49:23.276Z,5.70
2023-02-27T15:52:02.224Z,5.80
2023-02-27T15:54:33.704Z,6.10
2023-02-27T15:57:01.009Z,6.20
2023-02-27T15:59:30.658Z,6.20
2023-02-27T16:01:57.517Z,5.80
2023-02-27T16:04:26.266Z,5.80
2023-02-27T16:07:06.563Z,5.60
2023-02-27T16:09:36.751Z,5.40
2023-02-27T16:12:22.758Z,5.10
2023-02-27T16:14:55.820Z,5.00
2023-02-27T16:17:33.139Z,4.80
2023-02-27T16:20:40.988Z,5.10
2023-02-27T16:23:28.474Z,5.20
2023-02-27T16:26:14.655Z,4.90
2023-02-27T16:28:54.041Z,5.10
2023-02-27T16:31:26.986Z,5.10
2023-02-27T16:34:01.548Z,4.50
2023-02-27T16:36:32.316Z,4.80
2023-02-27T16:38:58.842Z,4.90
2023-02-27T16:41:25.963Z,4.80
2023-02-27T16:43:54.220Z,4.80
2023-02-27T16:46:22.245Z,4.70
2023-02-27T16:48:51.312Z,4.70
2023-02-27T16:51:21.508Z,4.60
2023-02-27T16:53:48.557Z,4.60
2023-02-27T16:56:23.744Z,4.60
2023-02-27T16:58:55.607Z,3.80
2023-02-27T17:01:22.270Z,3.50
2023-02-27T17:03:48.894Z,3.70
2023-02-27T17:06:15.351Z,3.90
2023-02-27T17:08:44.012Z,4.00
2023-02-27T17:11:10.701Z,3.50
2023-02-27T17:13:37.312Z,3.60
2023-02-27T17:16:05.048Z,3.70
2023-02-27T17:18:31.819Z,3.50
2023-02-27T17:21:03.249Z,3.30
2023-02-27T17:23:30.734Z,3.30
2023-02-27T17:25:57.301Z,3.30
2023-02-27T17:28:24.053Z,3.20
2023-02-27T17:30:50.672Z,2.90
2023-02-27T17:33:17.235Z,3.10
2023-02-27T17:35:43.854Z,3.10
2023-02-27T17:38:10.331Z,2.90
2023-02-27T17:40:39.514Z,2.90
2023-02-27T17:43:06.499Z,3.10
2023-02-27T17:45:33.053Z,3.10
2023-02-27T17:47:59.723Z,3.00
2023-02-27T17:50:26.210Z,2.80
2023-02-27T17:52:54.759Z,2.40
2023-02-27T17:55:21.418Z,2.40
2023-02-27T17:57:47.890Z,2.40
2023-02-27T18:00:15.248Z,2.30
2023-02-27T18:02:44.113Z,2.40
2023-02-27T18:05:10.879Z,2.50
2023-02-27T18:07:37.878Z,2.40
2023-02-27T18:10:08.960Z,2.30
2023-02-27T18:12:36.657Z,2.20
2023-02-27T18:15:04.341Z,2.20
2023-02-27T18:17:30.937Z,2.10
2023-02-27T18:19:58.050Z,1.90
2023-02-27T18:22:24.934Z,1.80
2023-02-27T18:24:55.772Z,1.80
2023-02-27T18:27:22.448Z,1.80
2023-02-27T18:29:51.777Z,1.70
2023-02-27T18:32:18.340Z,1.60
2023-02-27T18:34:45.050Z,1.60
2023-02-27T18:37:11.704Z,1.60
2023-02-27T18:39:38.340Z,1.50
2023-02-27T18:42:06.804Z,1.50
2023-02-27T18:44:33.502Z,1.40
2023-02-27T18:47:01.052Z,1.40
2023-02-27T18:49:30.334Z,1.20
2023-02-27T18:51:56.822Z,1.20
2023-02-27T18:54:23.389Z,1.10
2023-02-27T18:56:52.942Z,0.90
2023-02-27T18:59:19.811Z,1.00
2023-02-27T19:01:46.359Z,1.00
2023-02-27T19:04:12.865Z,1.00
2023-02-27T19:06:42.321Z,0.90
2023-02-27T19:09:12.716Z,1.00
2023-02-27T19:11:39.652Z,1.00
2023-02-27T19:14:08.855Z,0.90
2023-02-27T19:16:37.955Z,0.90
2023-02-27T19:19:05.012Z,0.80
2023-02-27T19:21:32.697Z,0.80
2023-02-27T19:24:02.794Z,0.70
2023-02-27T19:26:32.962Z,0.70
2023-02-27T19:29:07.260Z,0.80
2023-02-27T19:31:34.455Z,0.70
2023-02-27T19:34:01.183Z,0.80
2023-02-27T19:36:29.786Z,0.70
2023-02-27T19:38:56.976Z,0.70
2023-02-27T19:41:24.438Z,0.60
2023-02-27T19:43:51.703Z,0.50
2023-02-27T19:46:21.017Z,0.50
2023-02-27T19:48:47.680Z,0.50
2023-02-27T19:51:17.064Z,0.40
2023-02-27T19:53:46.103Z,0.50
2023-02-27T19:56:15.311Z,0.40
2023-02-27T19:58:42.405Z,0.40
2023-02-27T20:01:09.920Z,0.50
2023-02-27T20:03:38.100Z,0.60
2023-02-27T20:06:08.209Z,0.60
2023-02-27T20:08:39.041Z,0.60
2023-02-27T20:11:06.025Z,0.50
2023-02-27T20:13:35.394Z,0.30
2023-02-27T20:16:04.959Z,0.20
2023-02-27T20:18:32.418Z,0.40
2023-02-27T20:21:06.551Z,0.30
2023-02-27T20:23:35.528Z,0.30
2023-02-27T20:26:23.549Z,0.20
2023-02-27T20:28:52.115Z,0.20
2023-02-27T20:31:25.335Z,0.20
2023-02-27T20:33:54.881Z,0.20
2023-02-27T20:36:21.375Z,0.20
2023-02-27T20:38:47.847Z,0.20
2023-02-27T20:41:18.147Z,0.20
2023-02-27T20:43:45.403Z,0.00
2023-02-27T20:46:32.094Z,0.00
2023-02-27T20:49:00.642Z,-0.10
2023-02-27T20:51:29.926Z,0.00
2023-02-27T20:53:59.714Z,0.00
2023-02-27T20:56:30.646Z,-0.10
2023-02-27T20:58:59.659Z,-0.10
2023-02-27T21:04:44.282Z,-0.20
2023-02-27T21:07:26.300Z,-0.20
2023-02-27T21:10:06.148Z,-0.10
2023-02-27T21:13:00.232Z,0.00
2023-02-27T21:16:12.593Z,-0.10
2023-02-27T21:18:45.738Z,-0.10
2023-02-27T21:21:18.655Z,0.00
2023-02-27T21:23:47.661Z,-0.10
2023-02-27T21:26:38.751Z,-0.10
2023-02-27T21:29:22.204Z,0.00
2023-02-27T21:31:51.179Z,0.00
2023-02-27T21:34:22.936Z,0.10
2023-02-27T21:36:52.998Z,0.20
2023-02-27T21:39:26.023Z,0.20
2023-02-27T21:41:52.920Z,0.20
2023-02-27T21:44:21.900Z,0.30
2023-02-27T21:46:48.509Z,0.30
2023-02-27T21:49:24.953Z,0.20
2023-02-27T21:51:51.581Z,0.30
2023-02-27T21:54:19.125Z,0.30
2023-02-27T21:56:47.908Z,0.30
2023-02-27T21:59:15.358Z,0.10
2023-02-27T22:01:47.177Z,0.20
2023-02-27T22:04:16.113Z,0.20
2023-02-27T22:06:43.068Z,0.20
2023-02-27T22:09:09.717Z,0.20
2023-02-27T22:11:36.392Z,0.10
2023-02-27T22:14:08.518Z,0.20
2023-02-27T22:16:35.202Z,0.00
2023-02-27T22:19:13.298Z,0.10
2023-02-27T22:21:40.316Z,0.00
2023-02-27T22:24:08.270Z,0.10
2023-02-27T22:26:35.456Z,0.10
2023-02-27T22:29:02.633Z,0.10
2023-02-27T22:31:32.448Z,-0.10
2023-02-27T22:34:02.611Z,0.00
2023-02-27T22:36:31.940Z,-0.10
2023-02-27T22:38:59.328Z,-0.10
2023-02-27T22:41:32.218Z,-0.10
2023-02-27T22:44:00.773Z,-0.10
2023-02-27T22:46:36.965Z,-0.10
2023-02-27T22:49:10.239Z,0.00
2023-02-27T22:51:37.530Z,-0.10
2023-02-27T22:54:05.469Z,-0.20
2023-02-27T22:56:33.236Z,-0.20
2023-02-27T22:58:59.925Z,-0.20
2023-02-27T23:01:29.100Z,-0.10
2023-02-27T23:04:04.111Z,-0.10
2023-02-27T23:06:36.941Z,-0.10
2023-02-27T23:09:05.478Z,-0.20
2023-02-27T23:11:32.682Z,-0.20
2023-02-27T23:13:59.697Z,-0.20
2023-02-27T23:16:26.490Z,-0.20
2023-02-27T23:18:55.978Z,-0.20
2023-02-27T23:21:26.529Z,-0.10
2023-02-27T23:23:58.374Z,-0.10
2023-02-27T23:26:28.320Z,-0.20
2023-02-27T23:28:56.084Z,-0.10
2023-02-27T23:31:22.742Z,-0.20
2023-02-27T23:33:49.270Z,-0.20
2023-02-27T23:36:15.731Z,-0.10
2023-02-27T23:38:43.050Z,-0.20
2023-02-27T23:41:10.224Z,-0.10
2023-02-27T23:43:55.344Z,-0.20
2023-02-27T23:46:21.828Z,-0.30
2023-02-27T23:48:51.687Z,-0.40
2023-02-27T23:51:18.329Z,-0.40
2023-02-27T23:53:45.002Z,-0.40
2023-02-27T23:56:16.832Z,-0.50
2023-02-27T23:58:44.081Z,-0.60
